createdAt,value
2019-02-27T00:01:05.125Z,6.20
2019-02-27T00:03:32.479Z,6.20
2019-02-27T00:05:59.697Z,6.20
2019-02-27T00:08:27.520Z,6.20
2019-02-27T00:10:54.847Z,6.20
2019-02-27T00:13:24.752Z,6.30
2019-02-27T00:15:51.345Z,6.30
2019-02-27T00:18:18.469Z,6.20
2019-02-27T00:20:45.713Z,6.20
2019-02-27T00:23:13.002Z,6.20
2019-02-27T00:25:40.182Z,6.20
2019-02-27T00:28:07.441Z,6.30
2019-02-27T00:30:37.927Z,6.30
2019-02-27T00:33:03.858Z,6.30
2019-02-27T00:35:31.140Z,6.30
2019-02-27T00:37:58.288Z,6.30
2019-02-27T00:40:25.543Z,6.30
2019-02-27T00:42:54.301Z,6.30
2019-02-27T00:45:21.926Z,6.30
2019-02-27T00:47:53.008Z,6.30
2019-02-27T00:50:18.312Z,6.30
2019-02-27T00:52:45.586Z,6.30
2019-02-27T00:55:12.839Z,6.40
2019-02-27T00:57:40.053Z,6.30
2019-02-27T01:00:10.305Z,6.30
2019-02-27T01:02:37.530Z,6.30
2019-02-27T01:05:06.231Z,6.30
2019-02-27T01:07:34.123Z,6.30
2019-02-27T01:10:01.955Z,6.30
2019-02-27T01:12:29.293Z,6.30
2019-02-27T01:14:56.477Z,6.30
2019-02-27T01:17:24.422Z,6.30
2019-02-27T01:19:51.761Z,6.30
2019-02-27T01:22:18.884Z,6.30
2019-02-27T01:24:49.887Z,6.20
2019-02-27T01:27:15.195Z,6.20
2019-02-27T01:29:42.417Z,6.20
2019-02-27T01:32:09.683Z,6.20
2019-02-27T01:34:36.802Z,6.20
2019-02-27T01:37:04.050Z,6.20
2019-02-27T01:39:31.318Z,6.10
2019-02-27T01:41:58.641Z,6.00
2019-02-27T01:44:25.963Z,6.00
2019-02-27T01:46:54.627Z,5.90
2019-02-27T01:49:21.962Z,5.80
2019-02-27T01:51:49.179Z,5.70
2019-02-27T01:54:16.322Z,5.50
2019-02-27T01:56:43.560Z,5.30
2019-02-27T01:59:10.822Z,5.00
2019-02-27T02:01:37.948Z,4.80
2019-02-27T02:04:05.120Z,4.60
2019-02-27T02:06:32.958Z,4.40
2019-02-27T02:09:30.308Z,4.30
2019-02-27T02:11:57.459Z,4.10
2019-02-27T02:15:12.640Z,3.90
2019-02-27T02:18:18.730Z,3.80
2019-02-27T02:21:05.816Z,3.70
2019-02-27T02:23:54.446Z,3.60
2019-02-27T02:27:18.441Z,3.60
2019-02-27T02:30:29.418Z,3.50
2019-02-27T02:33:08.412Z,3.40
2019-02-27T02:36:29.372Z,3.20
2019-02-27T02:39:09.221Z,3.20
2019-02-27T02:42:17.079Z,3.10
2019-02-27T02:45:11.604Z,3.00
2019-02-27T02:48:07.643Z,2.90
2019-02-27T02:51:18.500Z,2.90
2019-02-27T02:54:16.596Z,2.80
2019-02-27T02:57:10.427Z,2.80
2019-02-27T02:59:59.971Z,2.70
2019-02-27T03:02:52.765Z,2.60
2019-02-27T03:05:50.236Z,2.50
2019-02-27T03:08:46.322Z,2.50
2019-02-27T03:11:54.224Z,2.40
2019-02-27T03:15:02.643Z,2.40
2019-02-27T03:18:08.519Z,2.30
2019-02-27T03:20:51.774Z,2.20
2019-02-27T03:24:04.070Z,2.20
2019-02-27T03:27:08.424Z,2.20
2019-02-27T03:30:14.740Z,2.10
2019-02-27T03:33:27.086Z,2.10
2019-02-27T03:36:25.297Z,2.10
2019-02-27T03:39:07.995Z,2.00
2019-02-27T03:42:10.943Z,1.90
2019-02-27T03:45:16.361Z,1.90
2019-02-27T03:48:35.450Z,1.90
2019-02-27T03:51:44.743Z,1.80
2019-02-27T03:54:27.249Z,1.70
2019-02-27T03:57:20.247Z,1.60
2019-02-27T04:00:32.916Z,1.60
2019-02-27T04:03:18.534Z,1.50
2019-02-27T04:06:22.276Z,1.50
2019-02-27T04:08:56.676Z,1.40
2019-02-27T04:11:24.002Z,1.40
2019-02-27T04:13:51.337Z,1.40
2019-02-27T04:16:18.594Z,1.40
2019-02-27T04:18:45.779Z,1.40
2019-02-27T04:21:12.906Z,1.40
2019-02-27T04:23:40.154Z,1.40
2019-02-27T04:26:07.376Z,1.30
2019-02-27T04:28:34.634Z,1.20
2019-02-27T04:31:01.889Z,1.20
2019-02-27T04:33:29.120Z,1.10
2019-02-27T04:35:56.373Z,1.10
2019-02-27T04:38:25.075Z,1.10
2019-02-27T04:40:52.762Z,1.00
2019-02-27T04:43:19.994Z,1.00
2019-02-27T04:45:47.604Z,1.00
2019-02-27T04:48:15.032Z,1.00
2019-02-27T04:50:44.161Z,1.00
2019-02-27T04:53:11.402Z,0.90
2019-02-27T04:55:38.554Z,0.80
2019-02-27T04:58:08.670Z,0.70
2019-02-27T05:00:34.921Z,0.70
2019-02-27T05:03:02.042Z,0.70
2019-02-27T05:05:29.313Z,0.60
2019-02-27T05:07:56.588Z,0.60
2019-02-27T05:10:23.856Z,0.60
2019-02-27T05:12:50.969Z,0.60
2019-02-27T05:15:18.211Z,0.50
2019-02-27T05:17:45.377Z,0.50
2019-02-27T05:20:12.722Z,0.50
2019-02-27T05:22:40.065Z,0.50
2019-02-27T05:25:07.203Z,0.50
2019-02-27T05:27:34.342Z,0.50
2019-02-27T05:30:01.575Z,0.40
2019-02-27T05:32:28.903Z,0.40
2019-02-27T05:34:56.175Z,0.30
2019-02-27T05:37:23.460Z,0.30
2019-02-27T05:39:51.224Z,0.20
2019-02-27T05:42:18.959Z,0.20
2019-02-27T05:44:46.084Z,0.10
2019-02-27T05:47:13.311Z,0.10
2019-02-27T05:49:40.479Z,0.10
2019-02-27T05:52:07.831Z,0.10
2019-02-27T05:54:35.092Z,0.20
2019-02-27T05:57:02.296Z,0.20
2019-02-27T05:59:29.933Z,0.10
2019-02-27T06:01:57.208Z,0.10
2019-02-27T06:04:25.219Z,0.10
2019-02-27T06:06:52.890Z,0.20
2019-02-27T06:09:20.167Z,0.20
2019-02-27T06:11:47.440Z,0.30
2019-02-27T06:14:14.788Z,0.40
2019-02-27T06:16:41.939Z,0.50
2019-02-27T06:19:09.164Z,0.60
2019-02-27T06:21:36.415Z,0.70
2019-02-27T06:24:03.551Z,0.80
2019-02-27T06:26:32.384Z,0.90
2019-02-27T06:28:59.990Z,0.90
2019-02-27T06:31:27.257Z,1.10
2019-02-27T06:33:54.507Z,1.20
2019-02-27T06:36:21.644Z,1.30
2019-02-27T06:38:48.974Z,1.40
2019-02-27T06:41:16.369Z,1.50
2019-02-27T06:43:43.539Z,1.60
2019-02-27T06:46:10.775Z,1.70
2019-02-27T06:48:38.033Z,1.80
2019-02-27T06:51:05.203Z,2.00
2019-02-27T06:53:32.458Z,2.10
2019-02-27T06:56:02.774Z,2.20
2019-02-27T06:58:29.053Z,2.30
2019-02-27T07:00:56.201Z,2.40
2019-02-27T07:03:23.432Z,2.60
2019-02-27T07:05:50.576Z,3.00
2019-02-27T07:08:17.700Z,3.50
2019-02-27T07:10:44.868Z,4.40
2019-02-27T07:13:12.223Z,5.70
2019-02-27T07:15:39.490Z,7.60
2019-02-27T07:18:06.801Z,9.70
2019-02-27T07:20:34.096Z,11.10
2019-02-27T07:23:04.991Z,12.50
2019-02-27T07:25:32.223Z,13.70
2019-02-27T07:27:59.476Z,14.80
2019-02-27T07:30:26.914Z,15.50
2019-02-27T07:32:55.027Z,16.50
2019-02-27T07:35:26.377Z,18.20
2019-02-27T07:37:53.558Z,19.50
2019-02-27T07:40:21.647Z,18.50
2019-02-27T07:42:48.990Z,17.40
2019-02-27T07:45:16.500Z,15.60
2019-02-27T07:47:43.785Z,13.90
2019-02-27T07:50:12.345Z,12.60
2019-02-27T07:52:39.613Z,11.60
2019-02-27T07:55:18.602Z,10.80
2019-02-27T07:57:35.986Z,10.30
2019-02-27T08:00:04.057Z,9.90
2019-02-27T08:02:33.724Z,9.70
2019-02-27T08:05:00.378Z,9.50
2019-02-27T08:07:27.690Z,9.50
2019-02-27T08:09:54.971Z,9.50
2019-02-27T08:12:22.198Z,9.70
2019-02-27T08:14:49.446Z,10.50
2019-02-27T08:17:17.804Z,11.80
2019-02-27T08:19:46.095Z,13.20
2019-02-27T08:22:13.343Z,14.80
2019-02-27T08:24:41.033Z,16.60
2019-02-27T08:27:09.624Z,17.80
2019-02-27T08:29:37.418Z,18.80
2019-02-27T08:32:05.477Z,20.10
2019-02-27T08:34:32.814Z,21.60
2019-02-27T08:37:00.052Z,21.50
2019-02-27T08:39:27.310Z,21.60
2019-02-27T08:41:54.463Z,21.50
2019-02-27T08:44:21.689Z,21.20
2019-02-27T08:46:48.865Z,21.10
2019-02-27T08:49:16.035Z,22.90
2019-02-27T08:51:43.285Z,24.00
2019-02-27T08:54:10.551Z,26.90
2019-02-27T08:56:37.667Z,27.90
2019-02-27T08:59:05.818Z,25.90
2019-02-27T09:01:33.468Z,24.80
2019-02-27T09:04:00.624Z,22.60
2019-02-27T09:06:28.252Z,20.00
2019-02-27T09:08:55.542Z,19.20
2019-02-27T09:11:22.795Z,17.90
2019-02-27T09:13:49.931Z,16.90
2019-02-27T09:16:17.187Z,17.20
2019-02-27T09:18:44.440Z,16.70
2019-02-27T09:21:11.801Z,16.00
2019-02-27T09:23:39.091Z,15.40
2019-02-27T09:26:06.341Z,14.90
2019-02-27T09:28:33.464Z,14.70
2019-02-27T09:31:04.240Z,14.80
2019-02-27T09:33:38.370Z,15.30
2019-02-27T09:35:59.054Z,15.00
2019-02-27T09:38:26.328Z,14.80
2019-02-27T09:40:53.538Z,14.50
2019-02-27T09:43:20.808Z,14.70
2019-02-27T09:45:47.952Z,14.80
2019-02-27T09:48:15.208Z,14.40
2019-02-27T09:50:47.572Z,14.30
2019-02-27T09:53:12.664Z,14.00
2019-02-27T09:55:39.912Z,13.80
2019-02-27T09:58:11.084Z,13.70
2019-02-27T10:00:38.658Z,13.90
2019-02-27T10:03:05.817Z,14.10
2019-02-27T10:05:36.280Z,14.50
2019-02-27T10:08:02.288Z,15.20
2019-02-27T10:10:29.551Z,17.00
2019-02-27T10:12:56.823Z,17.60
2019-02-27T10:15:25.219Z,16.70
2019-02-27T10:17:53.216Z,16.20
2019-02-27T10:20:20.515Z,15.70
2019-02-27T10:22:47.649Z,15.30
2019-02-27T10:25:14.880Z,15.00
2019-02-27T10:27:42.159Z,15.10
2019-02-27T10:30:11.693Z,15.20
2019-02-27T10:32:38.451Z,15.50
2019-02-27T10:35:05.885Z,16.40
2019-02-27T10:37:33.167Z,19.30
2019-02-27T10:40:00.504Z,21.70
2019-02-27T10:42:27.796Z,21.70
2019-02-27T10:44:54.919Z,21.50
2019-02-27T10:47:22.053Z,23.10
2019-02-27T10:49:49.183Z,26.10
2019-02-27T10:52:16.328Z,28.90
2019-02-27T10:54:43.581Z,30.60
2019-02-27T10:57:10.930Z,31.40
2019-02-27T10:59:38.098Z,30.80
2019-02-27T11:02:05.330Z,31.60
2019-02-27T11:04:32.603Z,32.40
2019-02-27T11:06:59.823Z,30.60
2019-02-27T11:09:27.788Z,31.20
2019-02-27T11:11:55.029Z,32.00
2019-02-27T11:14:22.546Z,32.00
2019-02-27T11:16:49.917Z,32.90
2019-02-27T11:19:17.295Z,32.70
2019-02-27T11:21:44.619Z,31.20
2019-02-27T11:24:16.440Z,30.00
2019-02-27T11:26:40.993Z,30.50
2019-02-27T11:29:08.269Z,31.10
2019-02-27T11:31:35.507Z,30.00
2019-02-27T11:34:05.082Z,27.10
2019-02-27T11:36:31.995Z,26.60
2019-02-27T11:38:59.946Z,26.70
2019-02-27T11:41:27.163Z,26.90
2019-02-27T11:43:54.393Z,28.10
2019-02-27T11:46:21.553Z,28.50
2019-02-27T11:48:48.700Z,29.00
2019-02-27T11:51:17.562Z,29.50
2019-02-27T11:53:45.035Z,30.20
2019-02-27T11:56:12.317Z,30.50
2019-02-27T11:58:39.547Z,31.10
2019-02-27T12:01:06.776Z,31.70
2019-02-27T12:03:34.105Z,31.60
2019-02-27T12:06:01.374Z,31.00
2019-02-27T12:08:30.206Z,30.20
2019-02-27T12:10:57.552Z,30.10
2019-02-27T12:13:24.809Z,29.60
2019-02-27T12:15:51.922Z,28.30
2019-02-27T12:18:19.080Z,28.40
2019-02-27T12:20:46.376Z,28.20
2019-02-27T12:23:13.665Z,27.00
2019-02-27T12:25:40.822Z,28.20
2019-02-27T12:28:08.056Z,27.90
2019-02-27T12:30:37.427Z,28.00
2019-02-27T12:33:04.541Z,27.80
2019-02-27T12:35:31.850Z,27.90
2019-02-27T12:37:59.088Z,27.80
2019-02-27T12:40:26.357Z,26.60
2019-02-27T12:42:53.821Z,26.60
2019-02-27T12:45:21.641Z,27.10
2019-02-27T12:47:48.949Z,26.50
2019-02-27T12:50:17.619Z,26.00
2019-02-27T12:52:47.934Z,25.50
2019-02-27T12:55:14.069Z,25.30
2019-02-27T12:57:41.353Z,24.80
2019-02-27T13:00:10.771Z,24.40
2019-02-27T13:02:38.063Z,23.70
2019-02-27T13:05:06.284Z,23.70
2019-02-27T13:07:33.565Z,23.20
2019-02-27T13:10:00.709Z,23.20
2019-02-27T13:12:27.935Z,23.20
2019-02-27T13:14:55.207Z,22.90
2019-02-27T13:17:22.442Z,22.90
2019-02-27T13:19:49.579Z,22.60
2019-02-27T13:22:16.890Z,22.00
2019-02-27T13:24:44.003Z,21.40
2019-02-27T13:27:11.153Z,21.20
2019-02-27T13:29:38.420Z,20.80
2019-02-27T13:32:05.558Z,20.50
2019-02-27T13:34:32.826Z,20.40
2019-02-27T13:37:00.088Z,20.10
2019-02-27T13:39:27.241Z,19.60
2019-02-27T13:41:54.550Z,19.00
2019-02-27T13:44:21.688Z,18.80
2019-02-27T13:46:48.982Z,18.30
2019-02-27T13:49:16.246Z,18.00
2019-02-27T13:51:43.466Z,17.70
2019-02-27T13:54:10.724Z,17.50
2019-02-27T13:56:37.993Z,17.30
2019-02-27T13:59:07.476Z,17.00
2019-02-27T14:01:34.270Z,16.50
2019-02-27T14:04:01.542Z,16.20
2019-02-27T14:06:28.675Z,16.20
2019-02-27T14:08:55.825Z,16.10
2019-02-27T14:11:24.876Z,15.90
2019-02-27T14:13:52.247Z,15.90
2019-02-27T14:16:19.381Z,15.90
2019-02-27T14:18:49.815Z,15.80
2019-02-27T14:21:15.707Z,15.70
2019-02-27T14:23:43.069Z,15.60
2019-02-27T14:26:10.298Z,15.60
2019-02-27T14:28:37.439Z,15.50
2019-02-27T14:31:09.037Z,15.40
2019-02-27T14:33:33.890Z,15.20
2019-02-27T14:36:01.024Z,15.20
2019-02-27T14:38:28.278Z,15.20
2019-02-27T14:40:55.635Z,15.10
2019-02-27T14:43:27.046Z,15.00
2019-02-27T14:45:52.070Z,15.00
2019-02-27T14:48:21.421Z,14.90
2019-02-27T14:50:48.462Z,14.80
2019-02-27T14:53:16.601Z,14.70
2019-02-27T14:55:44.858Z,14.80
2019-02-27T14:58:12.148Z,14.80
2019-02-27T15:00:40.981Z,14.80
2019-02-27T15:03:08.370Z,14.70
2019-02-27T15:05:36.828Z,14.60
2019-02-27T15:08:04.478Z,14.60
2019-02-27T15:10:31.718Z,14.50
2019-02-27T15:12:58.977Z,14.60
2019-02-27T15:15:27.551Z,14.50
2019-02-27T15:17:55.057Z,14.40
2019-02-27T15:20:23.017Z,14.30
2019-02-27T15:22:52.430Z,14.20
2019-02-27T15:25:19.508Z,14.10
2019-02-27T15:27:46.826Z,14.10
2019-02-27T15:30:16.089Z,14.00
2019-02-27T15:32:43.337Z,14.00
2019-02-27T15:35:10.511Z,13.90
2019-02-27T15:37:38.025Z,13.80
2019-02-27T15:40:06.122Z,13.70
2019-02-27T15:42:33.352Z,13.60
2019-02-27T15:45:00.622Z,13.60
2019-02-27T15:47:30.449Z,13.60
2019-02-27T15:49:56.918Z,13.60
2019-02-27T15:52:24.290Z,13.60
2019-02-27T15:54:51.438Z,13.50
2019-02-27T15:57:18.683Z,13.40
2019-02-27T15:59:45.935Z,13.40
2019-02-27T16:02:13.094Z,13.20
2019-02-27T16:04:40.327Z,13.10
2019-02-27T16:07:07.576Z,13.10
2019-02-27T16:09:34.848Z,13.00
2019-02-27T16:12:02.114Z,12.90
2019-02-27T16:14:30.072Z,12.80
2019-02-27T16:16:57.558Z,12.80
2019-02-27T16:19:25.562Z,12.70
2019-02-27T16:21:56.853Z,12.60
2019-02-27T16:24:22.041Z,12.50
2019-02-27T16:26:49.305Z,12.40
2019-02-27T16:29:16.553Z,12.30
2019-02-27T16:31:43.889Z,12.10
2019-02-27T16:34:13.310Z,12.00
2019-02-27T16:36:40.568Z,11.80
2019-02-27T16:39:08.376Z,11.60
2019-02-27T16:41:35.695Z,11.50
2019-02-27T16:44:03.286Z,11.30
2019-02-27T16:46:30.559Z,11.10
2019-02-27T16:48:57.843Z,11.00
2019-02-27T16:51:26.902Z,10.80
2019-02-27T16:53:54.262Z,10.70
2019-02-27T16:56:21.428Z,10.50
2019-02-27T16:58:48.606Z,10.40
2019-02-27T17:01:15.858Z,10.20
2019-02-27T17:03:45.075Z,10.10
2019-02-27T17:06:14.144Z,9.90
2019-02-27T17:08:41.410Z,9.80
2019-02-27T17:11:08.573Z,9.70
2019-02-27T17:13:35.834Z,9.50
2019-02-27T17:16:03.415Z,9.40
2019-02-27T17:18:30.752Z,9.30
2019-02-27T17:20:57.974Z,9.20
2019-02-27T17:23:25.109Z,9.20
2019-02-27T17:25:52.376Z,9.10
2019-02-27T17:28:19.611Z,8.90
2019-02-27T17:30:46.745Z,8.80
2019-02-27T17:33:15.766Z,8.70
2019-02-27T17:35:43.065Z,8.70
2019-02-27T17:38:10.847Z,8.60
2019-02-27T17:40:39.380Z,8.60
2019-02-27T17:43:06.953Z,8.50
2019-02-27T17:45:34.165Z,8.50
2019-02-27T17:48:01.433Z,8.40
2019-02-27T17:50:31.733Z,8.30
2019-02-27T17:52:57.812Z,8.20
2019-02-27T17:55:25.074Z,8.20
2019-02-27T17:57:55.280Z,8.10
2019-02-27T18:00:35.619Z,8.00
2019-02-27T18:03:05.034Z,7.90
2019-02-27T18:05:31.794Z,7.90
2019-02-27T18:07:59.062Z,7.80
2019-02-27T18:10:26.326Z,7.70
2019-02-27T18:12:53.618Z,7.60
2019-02-27T18:15:21.299Z,7.60
2019-02-27T18:17:48.640Z,7.50
2019-02-27T18:20:16.069Z,7.40
2019-02-27T18:22:45.859Z,7.40
2019-02-27T18:25:12.441Z,7.30
2019-02-27T18:27:39.591Z,7.20
2019-02-27T18:30:08.096Z,7.10
2019-02-27T18:32:39.762Z,7.10
2019-02-27T18:35:05.133Z,7.00
2019-02-27T18:37:32.392Z,6.90
2019-02-27T18:39:59.551Z,6.90
2019-02-27T18:42:26.834Z,6.80
2019-02-27T18:44:54.156Z,6.70
2019-02-27T18:47:21.438Z,6.70
2019-02-27T18:49:48.998Z,6.70
2019-02-27T18:52:21.423Z,6.50
2019-02-27T18:54:46.990Z,6.50
2019-02-27T18:57:14.328Z,6.40
2019-02-27T18:59:41.598Z,6.30
2019-02-27T19:02:08.784Z,6.20
2019-02-27T19:04:36.085Z,6.10
2019-02-27T19:07:03.741Z,6.00
2019-02-27T19:09:32.472Z,5.90
2019-02-27T19:12:00.134Z,5.90
2019-02-27T19:14:27.353Z,5.90
2019-02-27T19:16:55.163Z,5.90
2019-02-27T19:19:23.086Z,5.90
2019-02-27T19:21:50.352Z,5.80
2019-02-27T19:24:17.610Z,5.70
2019-02-27T19:26:45.095Z,5.60
2019-02-27T19:29:12.440Z,5.50
2019-02-27T19:31:39.709Z,5.50
2019-02-27T19:34:07.466Z,5.40
2019-02-27T19:36:36.156Z,5.40
2019-02-27T19:39:04.770Z,5.40
2019-02-27T19:41:31.957Z,5.30
2019-02-27T19:43:59.240Z,5.30
2019-02-27T19:46:26.486Z,5.20
2019-02-27T19:48:53.657Z,5.20
2019-02-27T19:51:20.988Z,5.20
2019-02-27T19:53:48.367Z,5.20
2019-02-27T19:56:15.796Z,5.20
2019-02-27T19:58:42.927Z,5.50
2019-02-27T20:01:10.200Z,5.70
2019-02-27T20:03:37.475Z,5.70
2019-02-27T20:06:04.799Z,5.70
2019-02-27T20:08:32.099Z,5.50
2019-02-27T20:11:05.535Z,5.40
2019-02-27T20:13:28.841Z,5.40
2019-02-27T20:15:56.232Z,5.40
2019-02-27T20:18:24.393Z,5.40
2019-02-27T20:20:51.905Z,5.40
2019-02-27T20:23:19.101Z,5.40
2019-02-27T20:25:46.451Z,5.30
2019-02-27T20:28:13.790Z,5.30
2019-02-27T20:30:41.091Z,5.20
2019-02-27T20:33:08.341Z,5.10
2019-02-27T20:35:35.616Z,5.10
2019-02-27T20:38:03.258Z,5.10
2019-02-27T20:40:33.758Z,5.10
2019-02-27T20:42:59.847Z,5.00
2019-02-27T20:45:27.004Z,4.90
2019-02-27T20:47:57.724Z,4.90
2019-02-27T20:50:34.520Z,4.90
2019-02-27T20:52:55.932Z,4.80
2019-02-27T20:55:23.472Z,4.70
2019-02-27T20:57:50.843Z,4.60
2019-02-27T21:00:18.287Z,4.50
2019-02-27T21:02:45.618Z,4.40
2019-02-27T21:05:13.032Z,4.40
2019-02-27T21:07:40.304Z,4.40
2019-02-27T21:10:10.383Z,4.30
2019-02-27T21:12:40.666Z,4.30
2019-02-27T21:15:07.410Z,4.30
2019-02-27T21:17:34.691Z,4.40
2019-02-27T21:20:02.078Z,4.40
2019-02-27T21:22:29.456Z,4.40
2019-02-27T21:24:56.623Z,4.40
2019-02-27T21:27:23.859Z,4.40
2019-02-27T21:29:51.316Z,4.40
2019-02-27T21:32:18.596Z,4.40
2019-02-27T21:34:45.982Z,4.40
2019-02-27T21:37:13.257Z,4.50
2019-02-27T21:39:40.625Z,4.50
2019-02-27T21:44:31.922Z,4.40
2019-02-27T21:46:59.196Z,4.60
2019-02-27T21:49:29.144Z,4.50
2019-02-27T21:51:55.672Z,4.50
2019-02-27T21:54:22.994Z,4.40
2019-02-27T21:56:51.855Z,4.40
2019-02-27T21:59:19.328Z,4.30
2019-02-27T22:01:46.562Z,4.20
2019-02-27T22:04:13.829Z,4.10
2019-02-27T22:06:41.054Z,3.90
2019-02-27T22:09:10.119Z,3.70
2019-02-27T22:11:37.606Z,3.60
2019-02-27T22:14:04.995Z,3.60
2019-02-27T22:16:32.248Z,3.60
2019-02-27T22:18:59.604Z,3.60
2019-02-27T22:21:26.777Z,3.60
2019-02-27T22:23:53.986Z,3.60
2019-02-27T22:26:21.248Z,3.60
2019-02-27T22:28:51.191Z,3.60
2019-02-27T22:31:17.640Z,3.60
2019-02-27T22:33:44.952Z,3.50
2019-02-27T22:36:12.727Z,3.50
2019-02-27T22:38:40.787Z,3.50
2019-02-27T22:41:09.536Z,3.50
2019-02-27T22:43:37.094Z,3.40
2019-02-27T22:46:04.253Z,3.30
2019-02-27T22:48:31.567Z,3.20
2019-02-27T22:50:58.756Z,3.10
2019-02-27T22:53:26.219Z,3.00
2019-02-27T22:55:55.058Z,2.90
2019-02-27T22:58:22.234Z,2.90
2019-02-27T23:01:14.977Z,2.90
2019-02-27T23:03:57.783Z,2.80
2019-02-27T23:06:25.591Z,2.70
2019-02-27T23:08:54.438Z,2.60
2019-02-27T23:11:21.881Z,2.60
2019-02-27T23:13:49.207Z,2.50
2019-02-27T23:16:17.097Z,2.50
2019-02-27T23:18:44.379Z,2.40
2019-02-27T23:21:11.742Z,2.30
2019-02-27T23:23:39.093Z,2.20
2019-02-27T23:26:06.339Z,2.20
2019-02-27T23:28:34.724Z,2.20
2019-02-27T23:31:02.752Z,2.20
2019-02-27T23:33:29.926Z,2.10
2019-02-27T23:35:57.178Z,2.10
2019-02-27T23:38:24.338Z,2.10
2019-02-27T23:40:51.458Z,2.10
2019-02-27T23:43:19.725Z,2.10
2019-02-27T23:45:47.172Z,2.10
2019-02-27T23:48:14.440Z,2.10
2019-02-27T23:50:42.635Z,2.20
2019-02-27T23:53:10.585Z,2.30
2019-02-27T23:55:38.016Z,2.20
2019-02-27T23:58:05.284Z,2.20
